Aviation Digital Data Service (ADDS)

Output produced by METARs form (0802 UTC 29 August 2014)
found at http://www.aviationweather.gov/adds/metars/
 
KEWR 290520Z 2906/3012 33010KT P6SM FEW060 
     FM290900 35008KT P6SM SKC 
     FM291500 03005KT P6SM FEW250 
     FM292000 15008KT P6SM FEW050 SCT250 
     FM300300 16005KT P6SM FEW050 SCT250